sensor_id;sensor_type;location;lat;lon;timestamp;P1;durP1;ratioP1;P2;durP2;ratioP2
18340;SDS011;9296;48.084;16.352;2023-01-15T00:00:50;7.57;;;4.63;;
18340;SDS011;9296;48.084;16.352;2023-01-15T00:03:17;7.82;;;4.78;;
18340;SDS011;9296;48.084;16.352;2023-01-15T00:05:44;17.05;;;7.78;;
18340;SDS011;9296;48.084;16.352;2023-01-15T00:08:11;22.23;;;8.93;;
18340;SDS011;9296;48.084;16.352;2023-01-15T00:10:39;10.93;;;5.90;;
18340;SDS011;9296;48.084;16.352;2023-01-15T00:13:06;10.50;;;5.63;;
18340;SDS011;9296;48.084;16.352;2023-01-15T00:15:34;9.63;;;6.07;;
18340;SDS011;9296;48.084;16.352;2023-01-15T00:18:02;8.80;;;5.20;;
18340;SDS011;9296;48.084;16.352;2023-01-15T00:20:29;7.70;;;4.78;;
18340;SDS011;9296;48.084;16.352;2023-01-15T00:22:57;7.32;;;4.60;;
18340;SDS011;9296;48.084;16.352;2023-01-15T00:25:24;8.85;;;5.00;;
18340;SDS011;9296;48.084;16.352;2023-01-15T00:28:11;6.88;;;4.45;;
18340;SDS011;9296;48.084;16.352;2023-01-15T00:30:40;6.82;;;4.53;;
18340;SDS011;9296;48.084;16.352;2023-01-15T00:33:08;6.93;;;4.22;;
18340;SDS011;9296;48.084;16.352;2023-01-15T00:35:35;7.53;;;4.63;;
18340;SDS011;9296;48.084;16.352;2023-01-15T00:38:02;8.55;;;4.88;;
18340;SDS011;9296;48.084;16.352;2023-01-15T00:40:30;7.55;;;4.22;;
18340;SDS011;9296;48.084;16.352;2023-01-15T00:42:57;7.68;;;4.53;;
18340;SDS011;9296;48.084;16.352;2023-01-15T00:45:24;7.22;;;4.35;;
18340;SDS011;9296;48.084;16.352;2023-01-15T00:47:53;7.25;;;4.15;;
18340;SDS011;9296;48.084;16.352;2023-01-15T00:50:20;6.68;;;4.28;;
18340;SDS011;9296;48.084;16.352;2023-01-15T00:52:47;6.78;;;4.38;;
18340;SDS011;9296;48.084;16.352;2023-01-15T00:55:14;5.85;;;4.05;;
18340;SDS011;9296;48.084;16.352;2023-01-15T00:57:41;7.32;;;4.20;;
18340;SDS011;9296;48.084;16.352;2023-01-15T01:02:56;9.70;;;5.15;;
18340;SDS011;9296;48.084;16.352;2023-01-15T01:05:23;9.57;;;5.68;;
18340;SDS011;9296;48.084;16.352;2023-01-15T01:07:50;7.15;;;4.90;;
18340;SDS011;9296;48.084;16.352;2023-01-15T01:10:18;9.13;;;5.50;;
18340;SDS011;9296;48.084;16.352;2023-01-15T01:12:45;11.23;;;6.13;;
18340;SDS011;9296;48.084;16.352;2023-01-15T01:18:20;8.93;;;5.18;;
18340;SDS011;9296;48.084;16.352;2023-01-15T01:20:48;9.10;;;5.40;;
18340;SDS011;9296;48.084;16.352;2023-01-15T01:23:15;7.65;;;4.72;;
18340;SDS011;9296;48.084;16.352;2023-01-15T01:25:42;9.35;;;5.03;;
18340;SDS011;9296;48.084;16.352;2023-01-15T01:28:09;7.97;;;4.75;;
18340;SDS011;9296;48.084;16.352;2023-01-15T01:30:36;7.47;;;4.75;;
18340;SDS011;9296;48.084;16.352;2023-01-15T01:33:04;7.53;;;4.70;;
18340;SDS011;9296;48.084;16.352;2023-01-15T01:35:32;6.82;;;4.57;;
18340;SDS011;9296;48.084;16.352;2023-01-15T01:37:59;8.57;;;4.72;;
18340;SDS011;9296;48.084;16.352;2023-01-15T01:40:27;6.60;;;4.50;;
18340;SDS011;9296;48.084;16.352;2023-01-15T01:42:54;6.50;;;4.57;;
18340;SDS011;9296;48.084;16.352;2023-01-15T01:45:39;8.52;;;5.00;;
18340;SDS011;9296;48.084;16.352;2023-01-15T01:48:06;7.93;;;4.82;;
18340;SDS011;9296;48.084;16.352;2023-01-15T01:50:35;8.63;;;4.57;;
18340;SDS011;9296;48.084;16.352;2023-01-15T01:53:05;8.23;;;4.57;;
18340;SDS011;9296;48.084;16.352;2023-01-15T01:55:33;6.05;;;4.40;;
18340;SDS011;9296;48.084;16.352;2023-01-15T01:58:03;8.10;;;4.55;;
18340;SDS011;9296;48.084;16.352;2023-01-15T02:03:52;7.18;;;4.85;;
18340;SDS011;9296;48.084;16.352;2023-01-15T02:06:20;15.25;;;5.18;;
18340;SDS011;9296;48.084;16.352;2023-01-15T02:08:49;9.90;;;4.88;;
18340;SDS011;9296;48.084;16.352;2023-01-15T02:11:18;7.78;;;4.85;;
18340;SDS011;9296;48.084;16.352;2023-01-15T02:13:46;8.02;;;4.70;;
18340;SDS011;9296;48.084;16.352;2023-01-15T02:16:19;8.23;;;4.68;;
18340;SDS011;9296;48.084;16.352;2023-01-15T02:18:48;7.93;;;4.57;;
18340;SDS011;9296;48.084;16.352;2023-01-15T02:21:20;7.05;;;4.40;;
18340;SDS011;9296;48.084;16.352;2023-01-15T02:23:57;7.70;;;4.32;;
18340;SDS011;9296;48.084;16.352;2023-01-15T02:26:39;7.68;;;4.57;;
18340;SDS011;9296;48.084;16.352;2023-01-15T02:35:11;6.88;;;4.55;;
18340;SDS011;9296;48.084;16.352;2023-01-15T02:37:40;6.57;;;4.22;;
18340;SDS011;9296;48.084;16.352;2023-01-15T02:40:08;7.43;;;4.55;;
18340;SDS011;9296;48.084;16.352;2023-01-15T02:42:38;9.48;;;4.45;;
18340;SDS011;9296;48.084;16.352;2023-01-15T02:48:11;7.35;;;4.13;;
18340;SDS011;9296;48.084;16.352;2023-01-15T02:50:39;6.63;;;4.57;;
18340;SDS011;9296;48.084;16.352;2023-01-15T02:53:09;7.72;;;4.70;;
18340;SDS011;9296;48.084;16.352;2023-01-15T02:55:39;8.57;;;4.28;;
18340;SDS011;9296;48.084;16.352;2023-01-15T02:58:10;9.77;;;4.82;;
18340;SDS011;9296;48.084;16.352;2023-01-15T03:00:53;7.07;;;4.47;;
18340;SDS011;9296;48.084;16.352;2023-01-15T03:03:23;7.38;;;4.78;;
18340;SDS011;9296;48.084;16.352;2023-01-15T03:05:53;7.75;;;5.13;;
18340;SDS011;9296;48.084;16.352;2023-01-15T03:08:23;8.77;;;4.65;;
18340;SDS011;9296;48.084;16.352;2023-01-15T03:10:52;8.07;;;5.03;;
18340;SDS011;9296;48.084;16.352;2023-01-15T03:16:46;8.23;;;5.25;;
18340;SDS011;9296;48.084;16.352;2023-01-15T03:19:19;10.13;;;5.38;;
18340;SDS011;9296;48.084;16.352;2023-01-15T03:21:49;8.65;;;4.80;;
18340;SDS011;9296;48.084;16.352;2023-01-15T03:24:17;6.93;;;4.50;;
18340;SDS011;9296;48.084;16.352;2023-01-15T03:26:47;7.82;;;4.78;;
18340;SDS011;9296;48.084;16.352;2023-01-15T03:35:41;7.30;;;4.65;;
18340;SDS011;9296;48.084;16.352;2023-01-15T03:38:09;8.50;;;5.28;;
18340;SDS011;9296;48.084;16.352;2023-01-15T03:40:37;9.27;;;4.85;;
18340;SDS011;9296;48.084;16.352;2023-01-15T03:43:10;8.38;;;4.47;;
18340;SDS011;9296;48.084;16.352;2023-01-15T03:49:00;9.02;;;4.90;;
18340;SDS011;9296;48.084;16.352;2023-01-15T03:51:32;9.23;;;5.07;;
18340;SDS011;9296;48.084;16.352;2023-01-15T03:54:05;5.97;;;4.43;;
18340;SDS011;9296;48.084;16.352;2023-01-15T03:56:34;7.40;;;4.68;;
18340;SDS011;9296;48.084;16.352;2023-01-15T04:05:11;8.43;;;4.47;;
18340;SDS011;9296;48.084;16.352;2023-01-15T04:07:40;7.90;;;4.78;;
18340;SDS011;9296;48.084;16.352;2023-01-15T04:10:07;8.30;;;4.70;;
18340;SDS011;9296;48.084;16.352;2023-01-15T04:12:35;6.72;;;4.68;;
18340;SDS011;9296;48.084;16.352;2023-01-15T04:18:05;6.53;;;4.70;;
18340;SDS011;9296;48.084;16.352;2023-01-15T04:20:33;8.57;;;4.78;;
18340;SDS011;9296;48.084;16.352;2023-01-15T04:23:01;6.85;;;4.53;;
18340;SDS011;9296;48.084;16.352;2023-01-15T04:25:29;6.80;;;4.10;;
18340;SDS011;9296;48.084;16.352;2023-01-15T04:27:56;7.82;;;4.80;;
18340;SDS011;9296;48.084;16.352;2023-01-15T04:33:26;5.97;;;4.00;;
18340;SDS011;9296;48.084;16.352;2023-01-15T04:35:53;6.10;;;3.97;;
18340;SDS011;9296;48.084;16.352;2023-01-15T04:38:22;6.53;;;4.13;;
18340;SDS011;9296;48.084;16.352;2023-01-15T04:40:49;7.43;;;4.32;;
18340;SDS011;9296;48.084;16.352;2023-01-15T04:43:34;7.25;;;3.78;;
18340;SDS011;9296;48.084;16.352;2023-01-15T04:46:19;6.93;;;3.90;;
18340;SDS011;9296;48.084;16.352;2023-01-15T04:48:47;6.97;;;3.78;;
18340;SDS011;9296;48.084;16.352;2023-01-15T04:51:14;6.82;;;4.03;;
18340;SDS011;9296;48.084;16.352;2023-01-15T04:53:42;6.53;;;3.72;;
18340;SDS011;9296;48.084;16.352;2023-01-15T04:56:09;5.75;;;3.72;;
18340;SDS011;9296;48.084;16.352;2023-01-15T04:58:37;7.47;;;3.95;;
18340;SDS011;9296;48.084;16.352;2023-01-15T05:01:08;6.82;;;4.05;;
18340;SDS011;9296;48.084;16.352;2023-01-15T05:03:36;5.80;;;3.47;;
18340;SDS011;9296;48.084;16.352;2023-01-15T05:06:03;6.82;;;3.60;;
18340;SDS011;9296;48.084;16.352;2023-01-15T05:08:30;7.20;;;3.58;;
18340;SDS011;9296;48.084;16.352;2023-01-15T05:11:01;8.75;;;4.30;;
18340;SDS011;9296;48.084;16.352;2023-01-15T05:13:28;5.85;;;3.80;;
18340;SDS011;9296;48.084;16.352;2023-01-15T05:16:06;5.60;;;3.60;;
18340;SDS011;9296;48.084;16.352;2023-01-15T05:18:34;5.78;;;3.63;;
18340;SDS011;9296;48.084;16.352;2023-01-15T05:21:01;5.35;;;3.50;;
18340;SDS011;9296;48.084;16.352;2023-01-15T05:23:28;5.63;;;3.65;;
18340;SDS011;9296;48.084;16.352;2023-01-15T05:25:55;6.47;;;3.72;;
18340;SDS011;9296;48.084;16.352;2023-01-15T05:28:24;6.28;;;3.55;;
18340;SDS011;9296;48.084;16.352;2023-01-15T05:30:51;6.45;;;3.50;;
18340;SDS011;9296;48.084;16.352;2023-01-15T05:33:18;7.28;;;3.45;;
18340;SDS011;9296;48.084;16.352;2023-01-15T05:35:45;6.03;;;3.55;;
18340;SDS011;9296;48.084;16.352;2023-01-15T05:38:12;4.88;;;3.42;;
18340;SDS011;9296;48.084;16.352;2023-01-15T05:40:40;9.75;;;3.92;;
18340;SDS011;9296;48.084;16.352;2023-01-15T05:43:07;4.75;;;3.28;;
18340;SDS011;9296;48.084;16.352;2023-01-15T05:48:39;5.53;;;3.60;;
18340;SDS011;9296;48.084;16.352;2023-01-15T05:51:06;6.72;;;3.80;;
18340;SDS011;9296;48.084;16.352;2023-01-15T05:53:33;5.05;;;3.40;;
18340;SDS011;9296;48.084;16.352;2023-01-15T05:56:00;4.18;;;3.38;;
18340;SDS011;9296;48.084;16.352;2023-01-15T05:58:28;6.13;;;3.40;;
18340;SDS011;9296;48.084;16.352;2023-01-15T06:04:02;5.53;;;3.30;;
18340;SDS011;9296;48.084;16.352;2023-01-15T06:06:29;7.32;;;4.40;;
18340;SDS011;9296;48.084;16.352;2023-01-15T06:08:57;8.95;;;4.97;;
18340;SDS011;9296;48.084;16.352;2023-01-15T06:11:24;7.60;;;4.93;;
18340;SDS011;9296;48.084;16.352;2023-01-15T06:16:55;4.60;;;3.55;;
18340;SDS011;9296;48.084;16.352;2023-01-15T06:19:24;6.60;;;3.97;;
18340;SDS011;9296;48.084;16.352;2023-01-15T06:21:52;4.90;;;3.42;;
18340;SDS011;9296;48.084;16.352;2023-01-15T06:24:19;5.82;;;3.72;;
18340;SDS011;9296;48.084;16.352;2023-01-15T06:26:47;5.35;;;3.78;;
18340;SDS011;9296;48.084;16.352;2023-01-15T06:29:14;5.47;;;3.67;;
18340;SDS011;9296;48.084;16.352;2023-01-15T06:31:42;8.40;;;4.68;;
18340;SDS011;9296;48.084;16.352;2023-01-15T06:34:10;8.55;;;4.40;;
18340;SDS011;9296;48.084;16.352;2023-01-15T06:36:38;5.90;;;3.80;;
18340;SDS011;9296;48.084;16.352;2023-01-15T06:39:05;5.75;;;4.05;;
18340;SDS011;9296;48.084;16.352;2023-01-15T06:41:33;5.40;;;3.63;;
18340;SDS011;9296;48.084;16.352;2023-01-15T06:44:18;5.82;;;3.78;;
18340;SDS011;9296;48.084;16.352;2023-01-15T06:47:07;6.68;;;3.83;;
18340;SDS011;9296;48.084;16.352;2023-01-15T06:49:46;5.85;;;3.75;;
18340;SDS011;9296;48.084;16.352;2023-01-15T06:52:15;8.85;;;3.92;;
18340;SDS011;9296;48.084;16.352;2023-01-15T06:54:43;5.30;;;3.50;;
18340;SDS011;9296;48.084;16.352;2023-01-15T06:57:10;4.88;;;3.40;;
18340;SDS011;9296;48.084;16.352;2023-01-15T06:59:37;5.28;;;3.38;;
18340;SDS011;9296;48.084;16.352;2023-01-15T07:02:05;5.63;;;3.88;;
18340;SDS011;9296;48.084;16.352;2023-01-15T07:04:32;6.85;;;3.70;;
18340;SDS011;9296;48.084;16.352;2023-01-15T07:07:00;4.47;;;3.50;;
18340;SDS011;9296;48.084;16.352;2023-01-15T07:09:28;5.72;;;3.78;;
18340;SDS011;9296;48.084;16.352;2023-01-15T07:11:56;6.82;;;3.85;;
18340;SDS011;9296;48.084;16.352;2023-01-15T07:17:28;5.65;;;3.22;;
18340;SDS011;9296;48.084;16.352;2023-01-15T07:19:55;5.63;;;3.55;;
18340;SDS011;9296;48.084;16.352;2023-01-15T07:22:22;5.80;;;3.70;;
18340;SDS011;9296;48.084;16.352;2023-01-15T07:24:51;5.07;;;3.70;;
18340;SDS011;9296;48.084;16.352;2023-01-15T07:27:18;13.38;;;5.28;;
18340;SDS011;9296;48.084;16.352;2023-01-15T07:35:52;11.05;;;6.82;;
18340;SDS011;9296;48.084;16.352;2023-01-15T07:38:20;13.02;;;10.00;;
18340;SDS011;9296;48.084;16.352;2023-01-15T07:40:49;7.03;;;4.60;;
18340;SDS011;9296;48.084;16.352;2023-01-15T07:43:36;5.45;;;3.72;;
18340;SDS011;9296;48.084;16.352;2023-01-15T07:46:21;6.63;;;3.65;;
18340;SDS011;9296;48.084;16.352;2023-01-15T07:49:07;6.60;;;3.95;;
18340;SDS011;9296;48.084;16.352;2023-01-15T07:51:52;7.47;;;4.07;;
18340;SDS011;9296;48.084;16.352;2023-01-15T07:54:19;7.43;;;4.30;;
18340;SDS011;9296;48.084;16.352;2023-01-15T07:56:48;5.35;;;3.60;;
18340;SDS011;9296;48.084;16.352;2023-01-15T07:59:34;7.57;;;4.50;;
18340;SDS011;9296;48.084;16.352;2023-01-15T08:02:02;8.52;;;5.20;;
18340;SDS011;9296;48.084;16.352;2023-01-15T08:04:29;10.85;;;5.72;;
18340;SDS011;9296;48.084;16.352;2023-01-15T08:06:57;8.85;;;4.63;;
18340;SDS011;9296;48.084;16.352;2023-01-15T08:09:25;6.43;;;4.03;;
18340;SDS011;9296;48.084;16.352;2023-01-15T08:11:53;7.75;;;3.80;;
18340;SDS011;9296;48.084;16.352;2023-01-15T08:17:43;6.60;;;3.88;;
18340;SDS011;9296;48.084;16.352;2023-01-15T08:20:11;5.78;;;3.83;;
18340;SDS011;9296;48.084;16.352;2023-01-15T08:22:39;5.57;;;3.72;;
18340;SDS011;9296;48.084;16.352;2023-01-15T08:25:07;6.07;;;3.45;;
18340;SDS011;9296;48.084;16.352;2023-01-15T08:27:36;6.55;;;3.63;;
18340;SDS011;9296;48.084;16.352;2023-01-15T08:30:05;4.30;;;3.30;;
18340;SDS011;9296;48.084;16.352;2023-01-15T08:32:32;5.40;;;3.63;;
18340;SDS011;9296;48.084;16.352;2023-01-15T08:34:59;4.85;;;3.30;;
18340;SDS011;9296;48.084;16.352;2023-01-15T08:37:27;6.28;;;3.45;;
18340;SDS011;9296;48.084;16.352;2023-01-15T08:39:54;5.25;;;3.20;;
18340;SDS011;9296;48.084;16.352;2023-01-15T08:42:21;6.97;;;3.67;;
18340;SDS011;9296;48.084;16.352;2023-01-15T08:48:12;6.85;;;3.28;;
18340;SDS011;9296;48.084;16.352;2023-01-15T08:50:39;4.93;;;3.22;;
18340;SDS011;9296;48.084;16.352;2023-01-15T08:53:06;5.40;;;3.28;;
18340;SDS011;9296;48.084;16.352;2023-01-15T08:55:33;5.45;;;3.25;;
18340;SDS011;9296;48.084;16.352;2023-01-15T08:58:00;5.40;;;3.63;;
18340;SDS011;9296;48.084;16.352;2023-01-15T09:00:28;5.15;;;3.38;;
18340;SDS011;9296;48.084;16.352;2023-01-15T09:02:55;5.90;;;3.72;;
18340;SDS011;9296;48.084;16.352;2023-01-15T09:05:24;6.03;;;3.25;;
18340;SDS011;9296;48.084;16.352;2023-01-15T09:07:52;6.40;;;3.65;;
18340;SDS011;9296;48.084;16.352;2023-01-15T09:10:19;5.45;;;4.10;;
18340;SDS011;9296;48.084;16.352;2023-01-15T09:12:47;6.63;;;4.03;;
18340;SDS011;9296;48.084;16.352;2023-01-15T09:15:14;5.68;;;3.63;;
18340;SDS011;9296;48.084;16.352;2023-01-15T09:17:41;6.57;;;4.05;;
18340;SDS011;9296;48.084;16.352;2023-01-15T09:20:10;5.20;;;3.45;;
18340;SDS011;9296;48.084;16.352;2023-01-15T09:22:39;5.78;;;3.72;;
18340;SDS011;9296;48.084;16.352;2023-01-15T09:25:07;6.47;;;3.72;;
18340;SDS011;9296;48.084;16.352;2023-01-15T09:27:35;5.47;;;3.70;;
18340;SDS011;9296;48.084;16.352;2023-01-15T09:30:02;5.35;;;3.58;;
18340;SDS011;9296;48.084;16.352;2023-01-15T09:32:31;7.32;;;3.95;;
18340;SDS011;9296;48.084;16.352;2023-01-15T09:34:58;7.53;;;4.93;;
18340;SDS011;9296;48.084;16.352;2023-01-15T09:37:25;4.93;;;3.30;;
18340;SDS011;9296;48.084;16.352;2023-01-15T09:39:54;4.65;;;3.35;;
18340;SDS011;9296;48.084;16.352;2023-01-15T09:42:25;5.00;;;3.42;;
18340;SDS011;9296;48.084;16.352;2023-01-15T09:45:01;5.32;;;3.70;;
18340;SDS011;9296;48.084;16.352;2023-01-15T09:47:33;4.45;;;3.28;;
18340;SDS011;9296;48.084;16.352;2023-01-15T09:50:03;5.60;;;3.50;;
18340;SDS011;9296;48.084;16.352;2023-01-15T09:52:37;5.28;;;3.33;;
18340;SDS011;9296;48.084;16.352;2023-01-15T09:55:12;5.00;;;3.35;;
18340;SDS011;9296;48.084;16.352;2023-01-15T09:57:41;5.32;;;3.65;;
18340;SDS011;9296;48.084;16.352;2023-01-15T10:00:11;5.55;;;3.60;;
18340;SDS011;9296;48.084;16.352;2023-01-15T10:02:40;6.65;;;4.07;;
18340;SDS011;9296;48.084;16.352;2023-01-15T10:05:10;5.22;;;3.53;;
18340;SDS011;9296;48.084;16.352;2023-01-15T10:07:40;5.40;;;3.60;;
18340;SDS011;9296;48.084;16.352;2023-01-15T10:10:11;5.68;;;3.80;;
18340;SDS011;9296;48.084;16.352;2023-01-15T10:12:39;7.43;;;3.70;;
18340;SDS011;9296;48.084;16.352;2023-01-15T10:15:22;10.10;;;3.67;;
18340;SDS011;9296;48.084;16.352;2023-01-15T10:17:51;4.50;;;3.30;;
18340;SDS011;9296;48.084;16.352;2023-01-15T10:20:26;7.25;;;3.80;;
18340;SDS011;9296;48.084;16.352;2023-01-15T10:23:02;5.97;;;3.83;;
18340;SDS011;9296;48.084;16.352;2023-01-15T10:25:35;6.00;;;3.53;;
18340;SDS011;9296;48.084;16.352;2023-01-15T10:28:08;5.57;;;3.83;;
18340;SDS011;9296;48.084;16.352;2023-01-15T10:33:46;6.53;;;4.38;;
18340;SDS011;9296;48.084;16.352;2023-01-15T10:36:18;8.18;;;4.20;;
18340;SDS011;9296;48.084;16.352;2023-01-15T10:38:49;6.05;;;4.07;;
18340;SDS011;9296;48.084;16.352;2023-01-15T10:41:23;5.13;;;3.90;;
18340;SDS011;9296;48.084;16.352;2023-01-15T10:43:54;6.10;;;4.10;;
18340;SDS011;9296;48.084;16.352;2023-01-15T10:46:24;6.38;;;3.92;;
18340;SDS011;9296;48.084;16.352;2023-01-15T10:48:53;6.10;;;3.92;;
18340;SDS011;9296;48.084;16.352;2023-01-15T10:51:21;6.22;;;4.00;;
18340;SDS011;9296;48.084;16.352;2023-01-15T10:53:50;6.00;;;4.05;;
18340;SDS011;9296;48.084;16.352;2023-01-15T10:56:21;8.63;;;4.20;;
18340;SDS011;9296;48.084;16.352;2023-01-15T10:58:54;5.57;;;4.05;;
18340;SDS011;9296;48.084;16.352;2023-01-15T11:04:27;5.00;;;3.60;;
18340;SDS011;9296;48.084;16.352;2023-01-15T11:06:56;4.97;;;3.50;;
18340;SDS011;9296;48.084;16.352;2023-01-15T11:09:24;5.57;;;3.70;;
18340;SDS011;9296;48.084;16.352;2023-01-15T11:12:00;6.18;;;3.90;;
18340;SDS011;9296;48.084;16.352;2023-01-15T11:14:50;6.10;;;3.83;;
18340;SDS011;9296;48.084;16.352;2023-01-15T11:17:35;6.55;;;3.78;;
18340;SDS011;9296;48.084;16.352;2023-01-15T11:20:24;7.57;;;4.80;;
18340;SDS011;9296;48.084;16.352;2023-01-15T11:22:53;7.13;;;4.10;;
18340;SDS011;9296;48.084;16.352;2023-01-15T11:25:24;6.32;;;3.70;;
18340;SDS011;9296;48.084;16.352;2023-01-15T11:27:51;6.90;;;4.30;;
18340;SDS011;9296;48.084;16.352;2023-01-15T11:33:21;5.93;;;3.90;;
18340;SDS011;9296;48.084;16.352;2023-01-15T11:35:49;4.95;;;3.60;;
18340;SDS011;9296;48.084;16.352;2023-01-15T11:38:21;5.82;;;3.90;;
18340;SDS011;9296;48.084;16.352;2023-01-15T11:40:51;7.63;;;4.82;;
18340;SDS011;9296;48.084;16.352;2023-01-15T11:43:20;5.35;;;3.97;;
18340;SDS011;9296;48.084;16.352;2023-01-15T11:46:25;5.20;;;3.90;;
18340;SDS011;9296;48.084;16.352;2023-01-15T11:49:12;6.80;;;4.68;;
18340;SDS011;9296;48.084;16.352;2023-01-15T11:51:58;5.45;;;4.30;;
18340;SDS011;9296;48.084;16.352;2023-01-15T11:54:27;6.30;;;4.35;;
18340;SDS011;9296;48.084;16.352;2023-01-15T11:56:56;5.47;;;3.72;;
18340;SDS011;9296;48.084;16.352;2023-01-15T11:59:24;7.60;;;4.50;;
18340;SDS011;9296;48.084;16.352;2023-01-15T12:01:52;6.45;;;4.10;;
18340;SDS011;9296;48.084;16.352;2023-01-15T12:04:30;7.55;;;4.30;;
18340;SDS011;9296;48.084;16.352;2023-01-15T12:06:58;6.85;;;4.43;;
18340;SDS011;9296;48.084;16.352;2023-01-15T12:09:30;6.53;;;4.18;;
18340;SDS011;9296;48.084;16.352;2023-01-15T12:12:01;6.38;;;4.60;;
18340;SDS011;9296;48.084;16.352;2023-01-15T12:14:40;7.35;;;4.55;;
18340;SDS011;9296;48.084;16.352;2023-01-15T12:20:17;6.90;;;4.20;;
18340;SDS011;9296;48.084;16.352;2023-01-15T12:22:51;9.23;;;4.28;;
18340;SDS011;9296;48.084;16.352;2023-01-15T12:25:29;6.25;;;4.32;;
18340;SDS011;9296;48.084;16.352;2023-01-15T12:28:03;6.93;;;4.32;;
18340;SDS011;9296;48.084;16.352;2023-01-15T12:30:40;7.53;;;4.53;;
18340;SDS011;9296;48.084;16.352;2023-01-15T12:33:16;8.27;;;4.43;;
18340;SDS011;9296;48.084;16.352;2023-01-15T12:35:48;6.72;;;4.35;;
18340;SDS011;9296;48.084;16.352;2023-01-15T12:38:21;6.55;;;4.90;;
18340;SDS011;9296;48.084;16.352;2023-01-15T12:40:51;6.60;;;4.53;;
18340;SDS011;9296;48.084;16.352;2023-01-15T12:43:20;7.95;;;4.70;;
18340;SDS011;9296;48.084;16.352;2023-01-15T12:52:07;7.65;;;5.22;;
18340;SDS011;9296;48.084;16.352;2023-01-15T12:54:37;8.80;;;5.65;;
18340;SDS011;9296;48.084;16.352;2023-01-15T12:57:07;9.80;;;5.60;;
18340;SDS011;9296;48.084;16.352;2023-01-15T12:59:40;10.18;;;5.43;;
18340;SDS011;9296;48.084;16.352;2023-01-15T13:02:11;7.60;;;5.32;;
18340;SDS011;9296;48.084;16.352;2023-01-15T13:04:41;8.07;;;5.32;;
18340;SDS011;9296;48.084;16.352;2023-01-15T13:07:13;8.98;;;5.70;;
18340;SDS011;9296;48.084;16.352;2023-01-15T13:09:43;7.57;;;5.20;;
18340;SDS011;9296;48.084;16.352;2023-01-15T13:12:13;9.02;;;5.90;;
18340;SDS011;9296;48.084;16.352;2023-01-15T13:14:40;10.05;;;6.10;;
18340;SDS011;9296;48.084;16.352;2023-01-15T13:20:14;9.57;;;5.50;;
18340;SDS011;9296;48.084;16.352;2023-01-15T13:22:46;7.00;;;5.07;;
18340;SDS011;9296;48.084;16.352;2023-01-15T13:25:27;7.45;;;5.40;;
18340;SDS011;9296;48.084;16.352;2023-01-15T13:28:01;7.05;;;5.00;;
18340;SDS011;9296;48.084;16.352;2023-01-15T13:30:35;8.10;;;5.15;;
18340;SDS011;9296;48.084;16.352;2023-01-15T13:33:08;7.95;;;5.63;;
18340;SDS011;9296;48.084;16.352;2023-01-15T13:35:39;8.20;;;5.78;;
18340;SDS011;9296;48.084;16.352;2023-01-15T13:38:13;8.45;;;6.05;;
18340;SDS011;9296;48.084;16.352;2023-01-15T13:40:43;9.40;;;6.32;;
18340;SDS011;9296;48.084;16.352;2023-01-15T13:43:19;11.00;;;6.15;;
18340;SDS011;9296;48.084;16.352;2023-01-15T13:51:56;11.38;;;6.80;;
18340;SDS011;9296;48.084;16.352;2023-01-15T13:54:29;14.73;;;7.10;;
18340;SDS011;9296;48.084;16.352;2023-01-15T13:57:05;17.63;;;7.70;;
18340;SDS011;9296;48.084;16.352;2023-01-15T13:59:42;14.65;;;8.00;;
18340;SDS011;9296;48.084;16.352;2023-01-15T14:05:23;14.43;;;7.57;;
18340;SDS011;9296;48.084;16.352;2023-01-15T14:07:52;14.02;;;8.18;;
18340;SDS011;9296;48.084;16.352;2023-01-15T14:10:25;12.98;;;7.30;;
18340;SDS011;9296;48.084;16.352;2023-01-15T14:12:56;11.93;;;6.72;;
18340;SDS011;9296;48.084;16.352;2023-01-15T14:15:26;11.63;;;6.03;;
18340;SDS011;9296;48.084;16.352;2023-01-15T14:20:50;9.82;;;5.70;;
18340;SDS011;9296;48.084;16.352;2023-01-15T14:23:24;10.07;;;5.68;;
18340;SDS011;9296;48.084;16.352;2023-01-15T14:25:58;9.77;;;5.80;;
18340;SDS011;9296;48.084;16.352;2023-01-15T14:28:43;11.07;;;5.97;;
18340;SDS011;9296;48.084;16.352;2023-01-15T14:31:27;9.95;;;6.68;;
18340;SDS011;9296;48.084;16.352;2023-01-15T14:34:04;12.15;;;7.63;;
18340;SDS011;9296;48.084;16.352;2023-01-15T14:36:37;15.68;;;8.52;;
18340;SDS011;9296;48.084;16.352;2023-01-15T14:39:06;14.38;;;9.07;;
18340;SDS011;9296;48.084;16.352;2023-01-15T14:41:37;16.50;;;9.30;;
18340;SDS011;9296;48.084;16.352;2023-01-15T14:44:24;14.32;;;8.82;;
18340;SDS011;9296;48.084;16.352;2023-01-15T14:46:55;14.27;;;8.43;;
18340;SDS011;9296;48.084;16.352;2023-01-15T14:49:27;11.07;;;8.30;;
18340;SDS011;9296;48.084;16.352;2023-01-15T14:51:54;13.43;;;8.15;;
18340;SDS011;9296;48.084;16.352;2023-01-15T14:54:22;13.02;;;8.30;;
18340;SDS011;9296;48.084;16.352;2023-01-15T14:56:52;13.50;;;8.50;;
18340;SDS011;9296;48.084;16.352;2023-01-15T14:59:22;15.40;;;8.82;;
18340;SDS011;9296;48.084;16.352;2023-01-15T15:05:23;16.73;;;9.55;;
18340;SDS011;9296;48.084;16.352;2023-01-15T15:07:51;15.75;;;9.82;;
18340;SDS011;9296;48.084;16.352;2023-01-15T15:10:20;20.35;;;10.05;;
18340;SDS011;9296;48.084;16.352;2023-01-15T15:12:53;17.92;;;9.77;;
18340;SDS011;9296;48.084;16.352;2023-01-15T15:15:24;14.57;;;9.57;;
18340;SDS011;9296;48.084;16.352;2023-01-15T15:17:56;16.33;;;10.60;;
18340;SDS011;9296;48.084;16.352;2023-01-15T15:20:28;15.93;;;9.93;;
18340;SDS011;9296;48.084;16.352;2023-01-15T15:23:00;14.93;;;8.57;;
18340;SDS011;9296;48.084;16.352;2023-01-15T15:25:29;14.18;;;8.38;;
18340;SDS011;9296;48.084;16.352;2023-01-15T15:28:05;12.20;;;8.10;;
18340;SDS011;9296;48.084;16.352;2023-01-15T15:30:33;14.43;;;8.32;;
18340;SDS011;9296;48.084;16.352;2023-01-15T15:36:04;11.07;;;7.75;;
18340;SDS011;9296;48.084;16.352;2023-01-15T15:38:33;10.82;;;7.03;;
18340;SDS011;9296;48.084;16.352;2023-01-15T15:41:04;12.82;;;7.30;;
18340;SDS011;9296;48.084;16.352;2023-01-15T15:43:38;11.50;;;7.05;;
18340;SDS011;9296;48.084;16.352;2023-01-15T15:46:36;10.85;;;6.50;;
18340;SDS011;9296;48.084;16.352;2023-01-15T15:49:21;11.27;;;7.43;;
18340;SDS011;9296;48.084;16.352;2023-01-15T15:51:48;10.45;;;7.47;;
18340;SDS011;9296;48.084;16.352;2023-01-15T15:54:17;12.82;;;6.72;;
18340;SDS011;9296;48.084;16.352;2023-01-15T15:56:49;12.52;;;7.30;;
18340;SDS011;9296;48.084;16.352;2023-01-15T15:59:22;10.55;;;7.25;;
18340;SDS011;9296;48.084;16.352;2023-01-15T16:01:53;10.93;;;7.50;;
18340;SDS011;9296;48.084;16.352;2023-01-15T16:04:20;12.82;;;7.65;;
18340;SDS011;9296;48.084;16.352;2023-01-15T16:06:48;10.90;;;6.65;;
18340;SDS011;9296;48.084;16.352;2023-01-15T16:09:19;11.50;;;7.13;;
18340;SDS011;9296;48.084;16.352;2023-01-15T16:11:46;10.77;;;6.60;;
18340;SDS011;9296;48.084;16.352;2023-01-15T16:14:14;11.88;;;7.32;;
18340;SDS011;9296;48.084;16.352;2023-01-15T16:16:43;12.50;;;7.35;;
18340;SDS011;9296;48.084;16.352;2023-01-15T16:19:12;8.98;;;5.85;;
18340;SDS011;9296;48.084;16.352;2023-01-15T16:21:41;7.55;;;5.05;;
18340;SDS011;9296;48.084;16.352;2023-01-15T16:24:21;4.57;;;3.47;;
18340;SDS011;9296;48.084;16.352;2023-01-15T16:26:51;8.05;;;5.05;;
18340;SDS011;9296;48.084;16.352;2023-01-15T16:29:20;9.07;;;5.53;;
18340;SDS011;9296;48.084;16.352;2023-01-15T16:31:50;5.45;;;3.30;;
18340;SDS011;9296;48.084;16.352;2023-01-15T16:34:20;4.50;;;3.30;;
18340;SDS011;9296;48.084;16.352;2023-01-15T16:36:48;4.95;;;2.33;;
18340;SDS011;9296;48.084;16.352;2023-01-15T16:39:16;4.70;;;2.00;;
18340;SDS011;9296;48.084;16.352;2023-01-15T16:41:46;1.52;;;1.10;;
18340;SDS011;9296;48.084;16.352;2023-01-15T16:44:21;2.10;;;1.00;;
18340;SDS011;9296;48.084;16.352;2023-01-15T16:46:52;1.17;;;0.93;;
18340;SDS011;9296;48.084;16.352;2023-01-15T16:49:24;1.17;;;0.80;;
18340;SDS011;9296;48.084;16.352;2023-01-15T16:51:52;0.57;;;0.50;;
18340;SDS011;9296;48.084;16.352;2023-01-15T16:57:25;0.70;;;0.50;;